sensor_id;sensor_type;location;lat;lon;timestamp;pressure;altitude;pressure_sealevel;temperature
76394;BMP180;65216;51.090;-115.352;2023-05-02T00:00:05;86289.40;;;23.00
76394;BMP180;65216;51.090;-115.352;2023-05-02T00:02:33;86321.60;;;23.00
76394;BMP180;65216;51.090;-115.352;2023-05-02T00:05:00;86311.80;;;23.00
76394;BMP180;65216;51.090;-115.352;2023-05-02T00:07:28;86301.00;;;23.00
76394;BMP180;65216;51.090;-115.352;2023-05-02T00:09:55;86290.20;;;22.94
76394;BMP180;65216;51.090;-115.352;2023-05-02T00:12:22;86285.40;;;22.90
76394;BMP180;65216;51.090;-115.352;2023-05-02T00:14:50;86293.20;;;22.90
76394;BMP180;65216;51.090;-115.352;2023-05-02T00:17:21;86298.00;;;22.90
76394;BMP180;65216;51.090;-115.352;2023-05-02T00:19:51;86297.40;;;22.90
76394;BMP180;65216;51.090;-115.352;2023-05-02T00:22:18;86289.20;;;22.90
76394;BMP180;65216;51.090;-115.352;2023-05-02T00:24:46;86305.80;;;22.90
76394;BMP180;65216;51.090;-115.352;2023-05-02T00:27:19;86299.40;;;22.90
76394;BMP180;65216;51.090;-115.352;2023-05-02T00:29:46;86316.40;;;22.90
76394;BMP180;65216;51.090;-115.352;2023-05-02T00:35:26;86305.20;;;22.80
76394;BMP180;65216;51.090;-115.352;2023-05-02T00:37:55;86305.00;;;22.80
76394;BMP180;65216;51.090;-115.352;2023-05-02T00:40:25;86315.80;;;22.80
76394;BMP180;65216;51.090;-115.352;2023-05-02T00:42:55;86319.80;;;22.80
76394;BMP180;65216;51.090;-115.352;2023-05-02T00:45:25;86313.20;;;22.80
76394;BMP180;65216;51.090;-115.352;2023-05-02T00:47:55;86312.20;;;22.80
76394;BMP180;65216;51.090;-115.352;2023-05-02T00:50:26;86319.00;;;22.80
76394;BMP180;65216;51.090;-115.352;2023-05-02T00:52:59;86309.20;;;22.80
76394;BMP180;65216;51.090;-115.352;2023-05-02T00:55:27;86320.00;;;22.80
76394;BMP180;65216;51.090;-115.352;2023-05-02T00:57:57;86306.20;;;22.80
76394;BMP180;65216;51.090;-115.352;2023-05-02T01:00:35;86310.40;;;22.88
76394;BMP180;65216;51.090;-115.352;2023-05-02T01:03:23;86309.60;;;22.90
76394;BMP180;65216;51.090;-115.352;2023-05-02T01:06:44;86310.40;;;22.90
76394;BMP180;65216;51.090;-115.352;2023-05-02T01:12:18;86305.20;;;22.90
76394;BMP180;65216;51.090;-115.352;2023-05-02T01:14:52;86322.00;;;22.90
76394;BMP180;65216;51.090;-115.352;2023-05-02T01:17:27;86307.00;;;23.00
76394;BMP180;65216;51.090;-115.352;2023-05-02T01:20:06;86314.60;;;23.00
76394;BMP180;65216;51.090;-115.352;2023-05-02T01:22:38;86315.40;;;23.00
76394;BMP180;65216;51.090;-115.352;2023-05-02T01:25:30;86316.60;;;23.00
76394;BMP180;65216;51.090;-115.352;2023-05-02T01:28:30;86313.40;;;23.00
76394;BMP180;65216;51.090;-115.352;2023-05-02T01:31:06;86322.40;;;23.00
76394;BMP180;65216;51.090;-115.352;2023-05-02T01:33:35;86318.80;;;23.00
76394;BMP180;65216;51.090;-115.352;2023-05-02T01:36:11;86317.40;;;23.00
76394;BMP180;65216;51.090;-115.352;2023-05-02T01:38:43;86320.20;;;23.00
76394;BMP180;65216;51.090;-115.352;2023-05-02T01:41:12;86330.20;;;23.00
76394;BMP180;65216;51.090;-115.352;2023-05-02T01:43:41;86319.20;;;22.96
76394;BMP180;65216;51.090;-115.352;2023-05-02T01:46:10;86323.00;;;22.98
76394;BMP180;65216;51.090;-115.352;2023-05-02T01:48:40;86330.00;;;22.90
76394;BMP180;65216;51.090;-115.352;2023-05-02T01:51:14;86322.40;;;22.90
76394;BMP180;65216;51.090;-115.352;2023-05-02T01:53:45;86333.80;;;22.90
76394;BMP180;65216;51.090;-115.352;2023-05-02T01:56:18;86331.20;;;22.90
76394;BMP180;65216;51.090;-115.352;2023-05-02T01:58:53;86327.20;;;22.90
76394;BMP180;65216;51.090;-115.352;2023-05-02T02:01:23;86331.40;;;22.90
76394;BMP180;65216;51.090;-115.352;2023-05-02T02:03:57;86328.80;;;22.90
76394;BMP180;65216;51.090;-115.352;2023-05-02T02:06:26;86344.60;;;22.90
76394;BMP180;65216;51.090;-115.352;2023-05-02T02:08:54;86335.20;;;22.90
76394;BMP180;65216;51.090;-115.352;2023-05-02T02:11:29;86344.60;;;22.90
76394;BMP180;65216;51.090;-115.352;2023-05-02T02:14:07;86341.60;;;22.90
76394;BMP180;65216;51.090;-115.352;2023-05-02T02:16:38;86341.80;;;22.90
76394;BMP180;65216;51.090;-115.352;2023-05-02T02:19:12;86348.20;;;22.80
76394;BMP180;65216;51.090;-115.352;2023-05-02T02:21:45;86356.80;;;22.80
76394;BMP180;65216;51.090;-115.352;2023-05-02T02:24:17;86348.40;;;22.80
76394;BMP180;65216;51.090;-115.352;2023-05-02T02:26:45;86345.20;;;22.80
76394;BMP180;65216;51.090;-115.352;2023-05-02T02:29:15;86354.00;;;22.80
76394;BMP180;65216;51.090;-115.352;2023-05-02T02:31:42;86353.20;;;22.80
76394;BMP180;65216;51.090;-115.352;2023-05-02T02:34:09;86361.80;;;22.80
76394;BMP180;65216;51.090;-115.352;2023-05-02T02:36:52;86351.40;;;22.80
76394;BMP180;65216;51.090;-115.352;2023-05-02T02:48:35;86352.80;;;22.70
76394;BMP180;65216;51.090;-115.352;2023-05-02T02:51:13;86363.80;;;22.70
76394;BMP180;65216;51.090;-115.352;2023-05-02T02:54:40;86368.60;;;22.70
76394;BMP180;65216;51.090;-115.352;2023-05-02T02:57:06;86368.60;;;22.70
76394;BMP180;65216;51.090;-115.352;2023-05-02T02:59:57;86359.20;;;22.68
76394;BMP180;65216;51.090;-115.352;2023-05-02T03:02:31;86364.20;;;22.66
76394;BMP180;65216;51.090;-115.352;2023-05-02T03:05:01;86382.20;;;22.60
76394;BMP180;65216;51.090;-115.352;2023-05-02T03:07:29;86382.20;;;22.60
76394;BMP180;65216;51.090;-115.352;2023-05-02T03:09:57;86386.60;;;22.60
76394;BMP180;65216;51.090;-115.352;2023-05-02T03:12:24;86396.20;;;22.60
76394;BMP180;65216;51.090;-115.352;2023-05-02T03:15:03;86396.40;;;22.60
76394;BMP180;65216;51.090;-115.352;2023-05-02T03:17:36;86397.60;;;22.60
76394;BMP180;65216;51.090;-115.352;2023-05-02T03:20:04;86405.80;;;22.60
76394;BMP180;65216;51.090;-115.352;2023-05-02T03:22:32;86411.00;;;22.58
76394;BMP180;65216;51.090;-115.352;2023-05-02T03:24:59;86410.00;;;22.58
76394;BMP180;65216;51.090;-115.352;2023-05-02T03:27:29;86415.60;;;22.50
76394;BMP180;65216;51.090;-115.352;2023-05-02T03:30:00;86414.40;;;22.50
76394;BMP180;65216;51.090;-115.352;2023-05-02T03:32:29;86424.60;;;22.50
76394;BMP180;65216;51.090;-115.352;2023-05-02T03:34:56;86427.40;;;22.50
76394;BMP180;65216;51.090;-115.352;2023-05-02T03:37:25;86429.60;;;22.50
76394;BMP180;65216;51.090;-115.352;2023-05-02T03:39:52;86438.40;;;22.50
76394;BMP180;65216;51.090;-115.352;2023-05-02T03:42:20;86437.40;;;22.48
76394;BMP180;65216;51.090;-115.352;2023-05-02T03:44:51;86441.60;;;22.40
76394;BMP180;65216;51.090;-115.352;2023-05-02T03:47:21;86447.20;;;22.40
76394;BMP180;65216;51.090;-115.352;2023-05-02T03:49:48;86444.40;;;22.40
76394;BMP180;65216;51.090;-115.352;2023-05-02T03:52:19;86449.40;;;22.40
76394;BMP180;65216;51.090;-115.352;2023-05-02T03:54:46;86449.80;;;22.40
76394;BMP180;65216;51.090;-115.352;2023-05-02T03:57:13;86451.20;;;22.40
76394;BMP180;65216;51.090;-115.352;2023-05-02T03:59:40;86453.60;;;22.40
76394;BMP180;65216;51.090;-115.352;2023-05-02T04:02:08;86461.40;;;22.40
76394;BMP180;65216;51.090;-115.352;2023-05-02T04:04:36;86456.40;;;22.36
76394;BMP180;65216;51.090;-115.352;2023-05-02T04:07:04;86463.40;;;22.34
76394;BMP180;65216;51.090;-115.352;2023-05-02T04:09:33;86465.60;;;22.30
76394;BMP180;65216;51.090;-115.352;2023-05-02T04:12:00;86464.00;;;22.30
76394;BMP180;65216;51.090;-115.352;2023-05-02T04:14:28;86464.60;;;22.30
76394;BMP180;65216;51.090;-115.352;2023-05-02T04:16:55;86468.20;;;22.30
76394;BMP180;65216;51.090;-115.352;2023-05-02T04:19:22;86468.60;;;22.30
76394;BMP180;65216;51.090;-115.352;2023-05-02T04:21:50;86470.60;;;22.28
76394;BMP180;65216;51.090;-115.352;2023-05-02T04:24:17;86476.00;;;22.20
76394;BMP180;65216;51.090;-115.352;2023-05-02T04:26:44;86480.80;;;22.20
76394;BMP180;65216;51.090;-115.352;2023-05-02T04:29:16;86483.00;;;22.20
76394;BMP180;65216;51.090;-115.352;2023-05-02T04:31:44;86486.00;;;22.20
76394;BMP180;65216;51.090;-115.352;2023-05-02T04:34:14;86487.00;;;22.20
76394;BMP180;65216;51.090;-115.352;2023-05-02T04:36:43;86490.00;;;22.20
76394;BMP180;65216;51.090;-115.352;2023-05-02T04:39:11;86492.80;;;22.20
76394;BMP180;65216;51.090;-115.352;2023-05-02T04:41:38;86493.80;;;22.20
76394;BMP180;65216;51.090;-115.352;2023-05-02T04:44:06;86492.60;;;22.20
76394;BMP180;65216;51.090;-115.352;2023-05-02T04:46:33;86493.40;;;22.10
76394;BMP180;65216;51.090;-115.352;2023-05-02T04:49:00;86499.80;;;22.10
76394;BMP180;65216;51.090;-115.352;2023-05-02T04:51:27;86503.60;;;22.10
76394;BMP180;65216;51.090;-115.352;2023-05-02T04:53:57;86501.80;;;22.10
76394;BMP180;65216;51.090;-115.352;2023-05-02T04:56:24;86508.40;;;22.10
76394;BMP180;65216;51.090;-115.352;2023-05-02T04:58:51;86511.20;;;22.10
76394;BMP180;65216;51.090;-115.352;2023-05-02T05:01:19;86508.80;;;22.10
76394;BMP180;65216;51.090;-115.352;2023-05-02T05:03:46;86513.60;;;22.10
76394;BMP180;65216;51.090;-115.352;2023-05-02T05:06:13;86515.40;;;22.10
76394;BMP180;65216;51.090;-115.352;2023-05-02T05:08:41;86512.80;;;22.10
76394;BMP180;65216;51.090;-115.352;2023-05-02T05:11:11;86513.80;;;22.10
76394;BMP180;65216;51.090;-115.352;2023-05-02T05:13:38;86520.40;;;22.10
76394;BMP180;65216;51.090;-115.352;2023-05-02T05:16:09;86518.00;;;22.10
76394;BMP180;65216;51.090;-115.352;2023-05-02T05:18:36;86525.00;;;22.08
76394;BMP180;65216;51.090;-115.352;2023-05-02T05:21:15;86525.40;;;22.00
76394;BMP180;65216;51.090;-115.352;2023-05-02T05:23:42;86524.40;;;22.00
76394;BMP180;65216;51.090;-115.352;2023-05-02T05:26:16;86523.00;;;22.00
76394;BMP180;65216;51.090;-115.352;2023-05-02T05:28:46;86528.00;;;22.00
76394;BMP180;65216;51.090;-115.352;2023-05-02T05:31:16;86528.20;;;22.00
76394;BMP180;65216;51.090;-115.352;2023-05-02T05:33:43;86529.80;;;22.00
76394;BMP180;65216;51.090;-115.352;2023-05-02T05:36:13;86531.40;;;22.00
76394;BMP180;65216;51.090;-115.352;2023-05-02T05:38:41;86530.80;;;22.00
76394;BMP180;65216;51.090;-115.352;2023-05-02T05:41:08;86530.40;;;22.00
76394;BMP180;65216;51.090;-115.352;2023-05-02T05:43:36;86534.00;;;22.00
76394;BMP180;65216;51.090;-115.352;2023-05-02T05:46:04;86540.00;;;22.00
76394;BMP180;65216;51.090;-115.352;2023-05-02T05:48:31;86542.20;;;22.00
76394;BMP180;65216;51.090;-115.352;2023-05-02T05:51:04;86543.80;;;22.00
76394;BMP180;65216;51.090;-115.352;2023-05-02T05:53:32;86546.20;;;22.00
76394;BMP180;65216;51.090;-115.352;2023-05-02T05:56:10;86549.20;;;22.00
76394;BMP180;65216;51.090;-115.352;2023-05-02T05:58:39;86547.00;;;22.00
76394;BMP180;65216;51.090;-115.352;2023-05-02T06:01:07;86549.80;;;21.96
76394;BMP180;65216;51.090;-115.352;2023-05-02T06:03:34;86557.40;;;21.92
76394;BMP180;65216;51.090;-115.352;2023-05-02T06:06:01;86564.40;;;21.90
76394;BMP180;65216;51.090;-115.352;2023-05-02T06:08:31;86565.80;;;21.90
76394;BMP180;65216;51.090;-115.352;2023-05-02T06:10:58;86569.40;;;21.90
76394;BMP180;65216;51.090;-115.352;2023-05-02T06:13:26;86574.20;;;21.90
76394;BMP180;65216;51.090;-115.352;2023-05-02T06:16:00;86573.60;;;21.90
76394;BMP180;65216;51.090;-115.352;2023-05-02T06:18:28;86579.20;;;21.90
76394;BMP180;65216;51.090;-115.352;2023-05-02T06:20:55;86584.40;;;21.90
76394;BMP180;65216;51.090;-115.352;2023-05-02T06:23:22;86590.60;;;21.90
76394;BMP180;65216;51.090;-115.352;2023-05-02T06:25:49;86590.60;;;21.90
76394;BMP180;65216;51.090;-115.352;2023-05-02T06:28:16;86590.00;;;21.90
76394;BMP180;65216;51.090;-115.352;2023-05-02T06:30:46;86590.00;;;21.90
76394;BMP180;65216;51.090;-115.352;2023-05-02T06:33:12;86594.20;;;21.90
76394;BMP180;65216;51.090;-115.352;2023-05-02T06:35:50;86603.20;;;21.84
76394;BMP180;65216;51.090;-115.352;2023-05-02T06:38:19;86602.20;;;21.80
76394;BMP180;65216;51.090;-115.352;2023-05-02T06:40:46;86604.00;;;21.80
76394;BMP180;65216;51.090;-115.352;2023-05-02T06:43:14;86607.20;;;21.80
76394;BMP180;65216;51.090;-115.352;2023-05-02T06:45:41;86608.40;;;21.80
76394;BMP180;65216;51.090;-115.352;2023-05-02T06:48:09;86610.20;;;21.80
76394;BMP180;65216;51.090;-115.352;2023-05-02T06:50:37;86617.00;;;21.80
76394;BMP180;65216;51.090;-115.352;2023-05-02T06:53:04;86618.80;;;21.80
76394;BMP180;65216;51.090;-115.352;2023-05-02T06:55:32;86626.00;;;21.80
76394;BMP180;65216;51.090;-115.352;2023-05-02T06:57:59;86627.40;;;21.80
76394;BMP180;65216;51.090;-115.352;2023-05-02T07:00:26;86626.20;;;21.80
76394;BMP180;65216;51.090;-115.352;2023-05-02T07:02:53;86625.80;;;21.80
76394;BMP180;65216;51.090;-115.352;2023-05-02T07:05:21;86630.60;;;21.80
76394;BMP180;65216;51.090;-115.352;2023-05-02T07:07:49;86629.00;;;21.80
76394;BMP180;65216;51.090;-115.352;2023-05-02T07:10:16;86630.00;;;21.80
76394;BMP180;65216;51.090;-115.352;2023-05-02T07:12:43;86629.40;;;21.80
76394;BMP180;65216;51.090;-115.352;2023-05-02T07:15:10;86637.00;;;21.76
76394;BMP180;65216;51.090;-115.352;2023-05-02T07:17:39;86639.60;;;21.72
76394;BMP180;65216;51.090;-115.352;2023-05-02T07:20:10;86640.60;;;21.70
76394;BMP180;65216;51.090;-115.352;2023-05-02T07:22:37;86644.20;;;21.70
76394;BMP180;65216;51.090;-115.352;2023-05-02T07:25:05;86648.40;;;21.70
76394;BMP180;65216;51.090;-115.352;2023-05-02T07:27:32;86649.20;;;21.70
76394;BMP180;65216;51.090;-115.352;2023-05-02T07:29:59;86652.80;;;21.70
76394;BMP180;65216;51.090;-115.352;2023-05-02T07:32:27;86650.20;;;21.70
76394;BMP180;65216;51.090;-115.352;2023-05-02T07:35:00;86651.60;;;21.70
76394;BMP180;65216;51.090;-115.352;2023-05-02T07:37:34;86652.20;;;21.70
76394;BMP180;65216;51.090;-115.352;2023-05-02T07:40:03;86657.00;;;21.70
76394;BMP180;65216;51.090;-115.352;2023-05-02T07:42:31;86655.20;;;21.70
76394;BMP180;65216;51.090;-115.352;2023-05-02T07:44:59;86658.60;;;21.70
76394;BMP180;65216;51.090;-115.352;2023-05-02T07:47:26;86659.60;;;21.70
76394;BMP180;65216;51.090;-115.352;2023-05-02T07:49:57;86663.00;;;21.70
76394;BMP180;65216;51.090;-115.352;2023-05-02T07:52:25;86663.00;;;21.70
76394;BMP180;65216;51.090;-115.352;2023-05-02T07:54:52;86663.40;;;21.70
76394;BMP180;65216;51.090;-115.352;2023-05-02T07:57:20;86666.80;;;21.66
76394;BMP180;65216;51.090;-115.352;2023-05-02T07:59:47;86667.60;;;21.60
76394;BMP180;65216;51.090;-115.352;2023-05-02T08:02:14;86671.60;;;21.60
76394;BMP180;65216;51.090;-115.352;2023-05-02T08:04:46;86670.80;;;21.60
76394;BMP180;65216;51.090;-115.352;2023-05-02T08:07:14;86670.00;;;21.60
76394;BMP180;65216;51.090;-115.352;2023-05-02T08:09:42;86677.80;;;21.60
76394;BMP180;65216;51.090;-115.352;2023-05-02T08:12:09;86677.00;;;21.60
76394;BMP180;65216;51.090;-115.352;2023-05-02T08:14:40;86681.80;;;21.60
76394;BMP180;65216;51.090;-115.352;2023-05-02T08:17:07;86683.20;;;21.60
76394;BMP180;65216;51.090;-115.352;2023-05-02T08:19:34;86683.60;;;21.60
76394;BMP180;65216;51.090;-115.352;2023-05-02T08:22:01;86688.00;;;21.60
76394;BMP180;65216;51.090;-115.352;2023-05-02T08:24:28;86694.00;;;21.60
76394;BMP180;65216;51.090;-115.352;2023-05-02T08:26:56;86696.60;;;21.60
76394;BMP180;65216;51.090;-115.352;2023-05-02T08:29:24;86692.40;;;21.60
76394;BMP180;65216;51.090;-115.352;2023-05-02T08:31:54;86692.00;;;21.60
76394;BMP180;65216;51.090;-115.352;2023-05-02T08:34:21;86695.00;;;21.60
76394;BMP180;65216;51.090;-115.352;2023-05-02T08:36:49;86695.80;;;21.60
76394;BMP180;65216;51.090;-115.352;2023-05-02T08:39:25;86695.20;;;21.60
76394;BMP180;65216;51.090;-115.352;2023-05-02T08:41:55;86693.80;;;21.52
76394;BMP180;65216;51.090;-115.352;2023-05-02T08:44:22;86699.80;;;21.50
76394;BMP180;65216;51.090;-115.352;2023-05-02T08:46:51;86703.80;;;21.50
76394;BMP180;65216;51.090;-115.352;2023-05-02T08:49:24;86708.00;;;21.50
76394;BMP180;65216;51.090;-115.352;2023-05-02T08:51:58;86713.80;;;21.50
76394;BMP180;65216;51.090;-115.352;2023-05-02T08:54:26;86709.80;;;21.50
76394;BMP180;65216;51.090;-115.352;2023-05-02T08:56:53;86710.20;;;21.50
76394;BMP180;65216;51.090;-115.352;2023-05-02T08:59:21;86708.60;;;21.50
76394;BMP180;65216;51.090;-115.352;2023-05-02T09:01:58;86712.60;;;21.50
76394;BMP180;65216;51.090;-115.352;2023-05-02T09:04:31;86716.40;;;21.50
76394;BMP180;65216;51.090;-115.352;2023-05-02T09:07:01;86717.80;;;21.50
76394;BMP180;65216;51.090;-115.352;2023-05-02T09:09:28;86723.60;;;21.50
76394;BMP180;65216;51.090;-115.352;2023-05-02T09:11:58;86727.20;;;21.48
76394;BMP180;65216;51.090;-115.352;2023-05-02T09:14:25;86723.60;;;21.40
76394;BMP180;65216;51.090;-115.352;2023-05-02T09:16:59;86726.40;;;21.40
76394;BMP180;65216;51.090;-115.352;2023-05-02T09:19:27;86726.20;;;21.40
76394;BMP180;65216;51.090;-115.352;2023-05-02T09:22:03;86728.80;;;21.40
76394;BMP180;65216;51.090;-115.352;2023-05-02T09:24:34;86732.60;;;21.40
76394;BMP180;65216;51.090;-115.352;2023-05-02T09:27:03;86733.60;;;21.40
76394;BMP180;65216;51.090;-115.352;2023-05-02T09:29:33;86735.40;;;21.34
76394;BMP180;65216;51.090;-115.352;2023-05-02T09:32:05;86735.00;;;21.30
76394;BMP180;65216;51.090;-115.352;2023-05-02T09:34:33;86740.60;;;21.30
76394;BMP180;65216;51.090;-115.352;2023-05-02T09:37:02;86746.60;;;21.30
76394;BMP180;65216;51.090;-115.352;2023-05-02T09:39:31;86756.00;;;21.30
76394;BMP180;65216;51.090;-115.352;2023-05-02T09:41:58;86758.60;;;21.20
76394;BMP180;65216;51.090;-115.352;2023-05-02T09:44:38;86765.80;;;21.20
76394;BMP180;65216;51.090;-115.352;2023-05-02T09:47:07;86768.80;;;21.20
76394;BMP180;65216;51.090;-115.352;2023-05-02T09:49:46;86775.00;;;21.20
76394;BMP180;65216;51.090;-115.352;2023-05-02T09:52:17;86774.00;;;21.20
76394;BMP180;65216;51.090;-115.352;2023-05-02T09:54:47;86772.40;;;21.20
76394;BMP180;65216;51.090;-115.352;2023-05-02T09:57:18;86778.80;;;21.20
76394;BMP180;65216;51.090;-115.352;2023-05-02T09:59:57;86779.60;;;21.10
76394;BMP180;65216;51.090;-115.352;2023-05-02T10:02:31;86778.00;;;21.10
76394;BMP180;65216;51.090;-115.352;2023-05-02T10:05:01;86774.40;;;21.10
76394;BMP180;65216;51.090;-115.352;2023-05-02T10:07:33;86776.00;;;21.10
76394;BMP180;65216;51.090;-115.352;2023-05-02T10:10:03;86778.80;;;21.10
76394;BMP180;65216;51.090;-115.352;2023-05-02T10:12:36;86782.60;;;21.10
76394;BMP180;65216;51.090;-115.352;2023-05-02T10:15:05;86785.40;;;21.06
76394;BMP180;65216;51.090;-115.352;2023-05-02T10:17:39;86786.20;;;21.00
76394;BMP180;65216;51.090;-115.352;2023-05-02T10:20:13;86787.00;;;21.00
76394;BMP180;65216;51.090;-115.352;2023-05-02T10:22:44;86793.60;;;21.00
76394;BMP180;65216;51.090;-115.352;2023-05-02T10:25:13;86798.60;;;21.00
76394;BMP180;65216;51.090;-115.352;2023-05-02T10:27:41;86800.40;;;21.00
76394;BMP180;65216;51.090;-115.352;2023-05-02T10:30:09;86802.20;;;21.00
76394;BMP180;65216;51.090;-115.352;2023-05-02T10:32:39;86805.60;;;21.00
76394;BMP180;65216;51.090;-115.352;2023-05-02T10:35:07;86807.40;;;21.00
76394;BMP180;65216;51.090;-115.352;2023-05-02T10:37:37;86807.00;;;21.00
76394;BMP180;65216;51.090;-115.352;2023-05-02T10:40:09;86805.80;;;20.98
76394;BMP180;65216;51.090;-115.352;2023-05-02T10:42:44;86804.60;;;21.00
76394;BMP180;65216;51.090;-115.352;2023-05-02T10:45:36;86806.40;;;20.92
76394;BMP180;65216;51.090;-115.352;2023-05-02T10:48:24;86808.60;;;20.94
76394;BMP180;65216;51.090;-115.352;2023-05-02T10:50:59;86812.80;;;20.90
76394;BMP180;65216;51.090;-115.352;2023-05-02T10:53:37;86816.80;;;20.90
76394;BMP180;65216;51.090;-115.352;2023-05-02T10:56:17;86820.40;;;20.90
76394;BMP180;65216;51.090;-115.352;2023-05-02T10:58:49;86829.20;;;20.90
76394;BMP180;65216;51.090;-115.352;2023-05-02T11:04:06;86832.60;;;20.98
76394;BMP180;65216;51.090;-115.352;2023-05-02T11:11:55;86834.60;;;20.98
76394;BMP180;65216;51.090;-115.352;2023-05-02T11:24:50;86834.80;;;21.00
76394;BMP180;65216;51.090;-115.352;2023-05-02T11:30:07;86836.00;;;21.00
76394;BMP180;65216;51.090;-115.352;2023-05-02T11:33:10;86837.60;;;21.00
76394;BMP180;65216;51.090;-115.352;2023-05-02T11:35:34;86838.80;;;21.00
76394;BMP180;65216;51.090;-115.352;2023-05-02T11:38:10;86838.20;;;21.00
76394;BMP180;65216;51.090;-115.352;2023-05-02T11:40:46;86842.60;;;21.00
76394;BMP180;65216;51.090;-115.352;2023-05-02T11:43:21;86844.60;;;21.00
76394;BMP180;65216;51.090;-115.352;2023-05-02T11:45:49;86844.20;;;21.00
76394;BMP180;65216;51.090;-115.352;2023-05-02T11:48:20;86849.20;;;21.00
76394;BMP180;65216;51.090;-115.352;2023-05-02T11:50:58;86855.20;;;21.00
76394;BMP180;65216;51.090;-115.352;2023-05-02T11:53:30;86859.60;;;21.00
76394;BMP180;65216;51.090;-115.352;2023-05-02T11:56:06;86862.00;;;21.00
76394;BMP180;65216;51.090;-115.352;2023-05-02T11:58:36;86854.00;;;21.00
76394;BMP180;65216;51.090;-115.352;2023-05-02T12:01:16;86859.40;;;21.00
76394;BMP180;65216;51.090;-115.352;2023-05-02T12:03:43;86858.80;;;21.00
76394;BMP180;65216;51.090;-115.352;2023-05-02T12:06:16;86863.40;;;21.00
76394;BMP180;65216;51.090;-115.352;2023-05-02T12:08:50;86860.40;;;21.00
76394;BMP180;65216;51.090;-115.352;2023-05-02T12:11:22;86863.20;;;21.00
76394;BMP180;65216;51.090;-115.352;2023-05-02T12:13:49;86857.80;;;21.00
76394;BMP180;65216;51.090;-115.352;2023-05-02T12:16:19;86860.00;;;21.00
76394;BMP180;65216;51.090;-115.352;2023-05-02T12:18:47;86854.60;;;21.00
76394;BMP180;65216;51.090;-115.352;2023-05-02T12:21:15;86863.20;;;21.02
76394;BMP180;65216;51.090;-115.352;2023-05-02T12:23:43;86868.20;;;21.02
76394;BMP180;65216;51.090;-115.352;2023-05-02T12:26:22;86865.20;;;21.04
76394;BMP180;65216;51.090;-115.352;2023-05-02T12:28:56;86862.20;;;21.02
76394;BMP180;65216;51.090;-115.352;2023-05-02T12:31:31;86864.20;;;21.00
76394;BMP180;65216;51.090;-115.352;2023-05-02T12:33:58;86864.00;;;21.00
76394;BMP180;65216;51.090;-115.352;2023-05-02T12:36:27;86858.60;;;21.02
76394;BMP180;65216;51.090;-115.352;2023-05-02T12:38:58;86863.40;;;21.08
76394;BMP180;65216;51.090;-115.352;2023-05-02T12:41:38;86863.60;;;21.10
76394;BMP180;65216;51.090;-115.352;2023-05-02T12:44:11;86866.40;;;21.06
76394;BMP180;65216;51.090;-115.352;2023-05-02T12:46:57;86865.40;;;21.04
76394;BMP180;65216;51.090;-115.352;2023-05-02T12:49:27;86868.60;;;21.04
76394;BMP180;65216;51.090;-115.352;2023-05-02T12:51:57;86862.60;;;21.00
76394;BMP180;65216;51.090;-115.352;2023-05-02T12:54:28;86873.20;;;21.06
76394;BMP180;65216;51.090;-115.352;2023-05-02T12:56:55;86877.40;;;21.02
76394;BMP180;65216;51.090;-115.352;2023-05-02T12:59:30;86876.00;;;21.04
76394;BMP180;65216;51.090;-115.352;2023-05-02T13:01:58;86870.80;;;21.10
76394;BMP180;65216;51.090;-115.352;2023-05-02T13:04:39;86879.80;;;21.10
76394;BMP180;65216;51.090;-115.352;2023-05-02T13:07:13;86876.60;;;21.10
76394;BMP180;65216;51.090;-115.352;2023-05-02T13:09:39;86883.20;;;21.08
76394;BMP180;65216;51.090;-115.352;2023-05-02T13:12:06;86882.40;;;21.00
76394;BMP180;65216;51.090;-115.352;2023-05-02T13:14:37;86879.80;;;21.08
76394;BMP180;65216;51.090;-115.352;2023-05-02T13:17:05;86875.40;;;21.10
76394;BMP180;65216;51.090;-115.352;2023-05-02T13:19:36;86881.80;;;21.08
76394;BMP180;65216;51.090;-115.352;2023-05-02T13:22:06;86875.40;;;21.10
76394;BMP180;65216;51.090;-115.352;2023-05-02T13:24:34;86881.00;;;21.10
76394;BMP180;65216;51.090;-115.352;2023-05-02T13:27:04;86875.40;;;21.10
76394;BMP180;65216;51.090;-115.352;2023-05-02T13:29:31;86878.40;;;21.10
76394;BMP180;65216;51.090;-115.352;2023-05-02T13:31:58;86884.60;;;21.10
76394;BMP180;65216;51.090;-115.352;2023-05-02T13:34:26;86886.20;;;21.10
76394;BMP180;65216;51.090;-115.352;2023-05-02T13:36:53;86884.60;;;21.10
76394;BMP180;65216;51.090;-115.352;2023-05-02T13:39:21;86887.60;;;21.10
76394;BMP180;65216;51.090;-115.352;2023-05-02T13:41:48;86891.20;;;21.10
76394;BMP180;65216;51.090;-115.352;2023-05-02T13:44:18;86893.60;;;21.10
76394;BMP180;65216;51.090;-115.352;2023-05-02T13:46:46;86899.40;;;21.10
76394;BMP180;65216;51.090;-115.352;2023-05-02T13:49:13;86897.60;;;21.10
76394;BMP180;65216;51.090;-115.352;2023-05-02T13:51:41;86893.80;;;21.10
76394;BMP180;65216;51.090;-115.352;2023-05-02T13:54:11;86902.40;;;21.10
76394;BMP180;65216;51.090;-115.352;2023-05-02T13:56:41;86899.80;;;21.10
76394;BMP180;65216;51.090;-115.352;2023-05-02T13:59:08;86896.20;;;21.10
76394;BMP180;65216;51.090;-115.352;2023-05-02T14:01:36;86904.60;;;21.10
76394;BMP180;65216;51.090;-115.352;2023-05-02T14:04:08;86900.00;;;21.10
76394;BMP180;65216;51.090;-115.352;2023-05-02T14:06:36;86903.20;;;21.10
76394;BMP180;65216;51.090;-115.352;2023-05-02T14:09:03;86902.60;;;21.10
76394;BMP180;65216;51.090;-115.352;2023-05-02T14:11:32;86902.20;;;21.10
76394;BMP180;65216;51.090;-115.352;2023-05-02T14:14:00;86893.40;;;21.10
76394;BMP180;65216;51.090;-115.352;2023-05-02T14:17:12;86898.80;;;21.10
76394;BMP180;65216;51.090;-115.352;2023-05-02T14:20:06;86903.40;;;21.10
76394;BMP180;65216;51.090;-115.352;2023-05-02T14:22:37;86900.80;;;21.10
76394;BMP180;65216;51.090;-115.352;2023-05-02T14:25:05;86895.60;;;21.10
76394;BMP180;65216;51.090;-115.352;2023-05-02T14:27:35;86895.20;;;21.10